Kodiak Airport
PADQ : rendu visible

Aérodrome :











RETROUVEZ-NOUS SUR...

 
LOGIN :

S'inscrire | Disclaimer

   EN    FR    IT 

 









Légende :    VFR   VFR Marginal   IFR   IFR Intensif   IFR Très Intensif
Visi : 
Plafond : 
>= 8 km
>= 3000ft
5 à 8 km
1000 à 3000 ft
1500m à 5 km
500 à 1000 ft
800 à 1500m
200 à 500 ft
< 800m
< 200 ft
Symboles :   Orages  Brouillard  Fortes neiges  Fortes précipitations  Vent > 20 kt






- Altitude de l'aérodrome : 78 ft
- Code IATA : ADQ


PADQ - Kodiak

DERNIER METAR :
  • 301953Z 08028G32KT 1SM -SN BR VV008 02/00 A2887 RMK AO2 PK WND 07034/1922 PRESFR SLP775 P0013 T00170000

METARs EXPIRÉS :
  • 301853Z 08029G36KT 1SM -SN BR VV009 02/M01 A2894 RMK AO2 PK WND 08038/1832 SLP802 P0006 T00171006 $
  • 301755Z 10023G35KT 1SM -SN VV009 02/M01 A2900 RMK AO2 PK WND 10028/1754 P0000 T00171011 $
  • 301748Z 09031G35KT 2 1/2SM -SN BR OVC010 02/M01 A2900 RMK AO2 PK WND 09035/1748 PRESFR P0002 $
  • 301732Z 10026G30KT 2 1/2SM -SN SCT010 OVC018 02/M01 A2902 RMK AO2 PK WND 10030/1732 P0000 T00171011 $

TAF PADQ
Valide du 30 à 18h jusqu'au 01 à 18h UTC


301729Z 3018/0118 10015G25KT 1SM -SN BR BKN015
FM302100 08025G35KT 2SM -RASN BR OVC010
FM010000 09015G22KT 4SM -RA BR OVC015
FM010200 20012G18KT P6SM -RA SCT020 BKN030
FM010800 15012KT 4SM -RA SCT008 OVC015
FIR PAZA / Amérique du Nord



MET'MAP, la Météo Aéronautique d'un coup d'oeil ! - Copyright ORBIFLY Décembre 2007 - Disclaimer

ORBIFLY MET'MAP TEAM :

Programmation & Développement : Alexandra Zaïnal
Sur une idée originale de : Baudouin d'Aumeries
Assistance à la programmation : Marc-Olivier Méhu
Soutien technique & logistique : Manuel Goepfert

Contact : metmap@orbifly.com




SOURCES & CREDITS :

   NOAA       Earth
Advisory